sensor_id;sensor_type;location;lat;lon;timestamp;P1;durP1;ratioP1;P2;durP2;ratioP2
24335;SDS011;33098;52.400;16.880;2022-12-10T00:01:28;71.10;;;35.10;;
24335;SDS011;33098;52.400;16.880;2022-12-10T00:03:56;72.00;;;34.90;;
24335;SDS011;33098;52.400;16.880;2022-12-10T00:06:24;70.20;;;33.70;;
24335;SDS011;33098;52.400;16.880;2022-12-10T00:08:53;70.80;;;33.80;;
24335;SDS011;33098;52.400;16.880;2022-12-10T00:11:20;70.60;;;34.70;;
24335;SDS011;33098;52.400;16.880;2022-12-10T00:13:48;74.40;;;34.40;;
24335;SDS011;33098;52.400;16.880;2022-12-10T00:16:16;70.30;;;35.10;;
24335;SDS011;33098;52.400;16.880;2022-12-10T00:18:44;67.10;;;33.20;;
24335;SDS011;33098;52.400;16.880;2022-12-10T00:21:13;74.30;;;35.10;;
24335;SDS011;33098;52.400;16.880;2022-12-10T00:23:59;73.80;;;34.60;;
24335;SDS011;33098;52.400;16.880;2022-12-10T00:26:31;68.80;;;34.20;;
24335;SDS011;33098;52.400;16.880;2022-12-10T00:29:01;65.30;;;32.50;;
24335;SDS011;33098;52.400;16.880;2022-12-10T00:31:30;65.70;;;33.30;;
24335;SDS011;33098;52.400;16.880;2022-12-10T00:33:59;64.80;;;33.50;;
24335;SDS011;33098;52.400;16.880;2022-12-10T00:36:29;68.00;;;33.80;;
24335;SDS011;33098;52.400;16.880;2022-12-10T00:38:58;66.90;;;32.30;;
24335;SDS011;33098;52.400;16.880;2022-12-10T00:41:27;71.10;;;33.50;;
24335;SDS011;33098;52.400;16.880;2022-12-10T00:43:54;66.90;;;32.80;;
24335;SDS011;33098;52.400;16.880;2022-12-10T00:46:21;69.70;;;32.10;;
24335;SDS011;33098;52.400;16.880;2022-12-10T00:48:48;64.70;;;32.30;;
24335;SDS011;33098;52.400;16.880;2022-12-10T00:51:22;67.40;;;32.40;;
24335;SDS011;33098;52.400;16.880;2022-12-10T00:53:51;67.10;;;32.40;;
24335;SDS011;33098;52.400;16.880;2022-12-10T00:56:20;66.30;;;32.30;;
24335;SDS011;33098;52.400;16.880;2022-12-10T00:58:49;71.70;;;34.20;;
24335;SDS011;33098;52.400;16.880;2022-12-10T01:01:20;66.80;;;32.80;;
24335;SDS011;33098;52.400;16.880;2022-12-10T01:03:59;65.00;;;31.70;;
24335;SDS011;33098;52.400;16.880;2022-12-10T01:06:29;66.20;;;31.70;;
24335;SDS011;33098;52.400;16.880;2022-12-10T01:08:58;66.50;;;31.40;;
24335;SDS011;33098;52.400;16.880;2022-12-10T01:11:30;66.80;;;32.50;;
24335;SDS011;33098;52.400;16.880;2022-12-10T01:16:26;61.80;;;31.10;;
24335;SDS011;33098;52.400;16.880;2022-12-10T01:18:54;64.70;;;32.80;;
24335;SDS011;33098;52.400;16.880;2022-12-10T01:21:22;70.00;;;32.90;;
24335;SDS011;33098;52.400;16.880;2022-12-10T01:23:50;62.40;;;31.30;;
24335;SDS011;33098;52.400;16.880;2022-12-10T01:26:20;66.00;;;32.80;;
24335;SDS011;33098;52.400;16.880;2022-12-10T01:28:49;67.90;;;33.00;;
24335;SDS011;33098;52.400;16.880;2022-12-10T01:31:18;64.60;;;32.40;;
24335;SDS011;33098;52.400;16.880;2022-12-10T01:33:46;65.50;;;30.80;;
24335;SDS011;33098;52.400;16.880;2022-12-10T01:36:17;59.90;;;30.80;;
24335;SDS011;33098;52.400;16.880;2022-12-10T01:38:49;58.50;;;30.70;;
24335;SDS011;33098;52.400;16.880;2022-12-10T01:41:38;57.10;;;30.00;;
24335;SDS011;33098;52.400;16.880;2022-12-10T01:46:35;60.40;;;30.80;;
24335;SDS011;33098;52.400;16.880;2022-12-10T01:49:08;63.50;;;30.90;;
24335;SDS011;33098;52.400;16.880;2022-12-10T01:51:38;55.80;;;29.60;;
24335;SDS011;33098;52.400;16.880;2022-12-10T01:54:07;62.10;;;30.70;;
24335;SDS011;33098;52.400;16.880;2022-12-10T01:59:08;60.40;;;28.70;;
24335;SDS011;33098;52.400;16.880;2022-12-10T02:01:38;56.00;;;29.40;;
24335;SDS011;33098;52.400;16.880;2022-12-10T02:07:06;51.40;;;27.60;;
24335;SDS011;33098;52.400;16.880;2022-12-10T02:09:38;54.70;;;29.00;;
24335;SDS011;33098;52.400;16.880;2022-12-10T02:12:21;50.10;;;27.30;;
24335;SDS011;33098;52.400;16.880;2022-12-10T02:15:00;51.40;;;27.30;;
24335;SDS011;33098;52.400;16.880;2022-12-10T02:17:37;48.10;;;27.20;;
24335;SDS011;33098;52.400;16.880;2022-12-10T02:20:19;49.50;;;27.10;;
24335;SDS011;33098;52.400;16.880;2022-12-10T02:22:58;51.90;;;26.80;;
24335;SDS011;33098;52.400;16.880;2022-12-10T02:30:58;51.10;;;26.40;;
24335;SDS011;33098;52.400;16.880;2022-12-10T02:33:26;52.60;;;26.80;;
24335;SDS011;33098;52.400;16.880;2022-12-10T02:35:56;49.30;;;26.00;;
24335;SDS011;33098;52.400;16.880;2022-12-10T02:38:26;48.60;;;26.50;;
24335;SDS011;33098;52.400;16.880;2022-12-10T02:40:59;49.80;;;26.20;;
24335;SDS011;33098;52.400;16.880;2022-12-10T02:43:31;46.60;;;26.50;;
24335;SDS011;33098;52.400;16.880;2022-12-10T02:46:00;47.30;;;26.70;;
24335;SDS011;33098;52.400;16.880;2022-12-10T02:48:30;48.40;;;26.10;;
24335;SDS011;33098;52.400;16.880;2022-12-10T02:50:59;48.90;;;26.40;;
24335;SDS011;33098;52.400;16.880;2022-12-10T02:53:26;45.00;;;26.30;;
24335;SDS011;33098;52.400;16.880;2022-12-10T02:55:55;49.10;;;26.50;;
24335;SDS011;33098;52.400;16.880;2022-12-10T02:58:26;45.90;;;25.40;;
24335;SDS011;33098;52.400;16.880;2022-12-10T03:03:42;47.30;;;25.30;;
24335;SDS011;33098;52.400;16.880;2022-12-10T03:06:20;45.60;;;24.80;;
24335;SDS011;33098;52.400;16.880;2022-12-10T03:09:07;44.20;;;24.60;;
24335;SDS011;33098;52.400;16.880;2022-12-10T03:11:39;45.90;;;25.10;;
24335;SDS011;33098;52.400;16.880;2022-12-10T03:16:44;45.80;;;23.50;;
24335;SDS011;33098;52.400;16.880;2022-12-10T03:19:19;45.10;;;24.50;;
24335;SDS011;33098;52.400;16.880;2022-12-10T03:21:49;44.40;;;24.60;;
24335;SDS011;33098;52.400;16.880;2022-12-10T03:24:18;46.70;;;24.90;;
24335;SDS011;33098;52.400;16.880;2022-12-10T03:26:48;43.90;;;23.60;;
24335;SDS011;33098;52.400;16.880;2022-12-10T03:29:17;45.80;;;25.00;;
24335;SDS011;33098;52.400;16.880;2022-12-10T03:31:49;40.10;;;22.20;;
24335;SDS011;33098;52.400;16.880;2022-12-10T03:34:19;40.50;;;22.00;;
24335;SDS011;33098;52.400;16.880;2022-12-10T03:36:46;37.10;;;22.40;;
24335;SDS011;33098;52.400;16.880;2022-12-10T03:39:15;35.70;;;19.80;;
24335;SDS011;33098;52.400;16.880;2022-12-10T03:41:43;33.10;;;20.30;;
24335;SDS011;33098;52.400;16.880;2022-12-10T03:44:09;34.80;;;19.70;;
24335;SDS011;33098;52.400;16.880;2022-12-10T03:46:36;32.00;;;18.80;;
24335;SDS011;33098;52.400;16.880;2022-12-10T03:49:03;33.10;;;19.40;;
24335;SDS011;33098;52.400;16.880;2022-12-10T03:51:30;31.40;;;18.20;;
24335;SDS011;33098;52.400;16.880;2022-12-10T03:53:56;31.40;;;19.00;;
24335;SDS011;33098;52.400;16.880;2022-12-10T03:56:23;31.80;;;18.90;;
24335;SDS011;33098;52.400;16.880;2022-12-10T03:58:49;30.90;;;19.10;;
24335;SDS011;33098;52.400;16.880;2022-12-10T04:01:16;28.20;;;17.70;;
24335;SDS011;33098;52.400;16.880;2022-12-10T04:03:43;31.60;;;18.50;;
24335;SDS011;33098;52.400;16.880;2022-12-10T04:06:11;29.80;;;18.10;;
24335;SDS011;33098;52.400;16.880;2022-12-10T04:08:42;30.10;;;18.00;;
24335;SDS011;33098;52.400;16.880;2022-12-10T04:11:10;30.90;;;17.70;;
24335;SDS011;33098;52.400;16.880;2022-12-10T04:13:37;28.00;;;17.50;;
24335;SDS011;33098;52.400;16.880;2022-12-10T04:16:24;28.70;;;17.60;;
24335;SDS011;33098;52.400;16.880;2022-12-10T04:21:26;27.60;;;16.70;;
24335;SDS011;33098;52.400;16.880;2022-12-10T04:24:13;31.70;;;16.90;;
24335;SDS011;33098;52.400;16.880;2022-12-10T04:26:59;30.70;;;17.30;;
24335;SDS011;33098;52.400;16.880;2022-12-10T04:29:30;30.30;;;17.70;;
24335;SDS011;33098;52.400;16.880;2022-12-10T04:31:57;28.80;;;17.50;;
24335;SDS011;33098;52.400;16.880;2022-12-10T04:34:24;28.50;;;17.30;;
24335;SDS011;33098;52.400;16.880;2022-12-10T04:36:51;27.00;;;16.90;;
24335;SDS011;33098;52.400;16.880;2022-12-10T04:39:17;30.60;;;18.70;;
24335;SDS011;33098;52.400;16.880;2022-12-10T04:41:45;32.30;;;18.00;;
24335;SDS011;33098;52.400;16.880;2022-12-10T04:44:14;30.50;;;18.40;;
24335;SDS011;33098;52.400;16.880;2022-12-10T04:46:41;27.60;;;17.40;;
24335;SDS011;33098;52.400;16.880;2022-12-10T04:49:08;31.50;;;18.80;;
24335;SDS011;33098;52.400;16.880;2022-12-10T04:51:34;31.30;;;18.60;;
24335;SDS011;33098;52.400;16.880;2022-12-10T04:54:01;30.00;;;18.00;;
24335;SDS011;33098;52.400;16.880;2022-12-10T04:56:28;27.20;;;16.80;;
24335;SDS011;33098;52.400;16.880;2022-12-10T04:58:55;29.20;;;16.60;;
24335;SDS011;33098;52.400;16.880;2022-12-10T05:01:23;29.40;;;17.00;;
24335;SDS011;33098;52.400;16.880;2022-12-10T05:03:49;28.00;;;17.30;;
24335;SDS011;33098;52.400;16.880;2022-12-10T05:06:17;25.50;;;16.60;;
24335;SDS011;33098;52.400;16.880;2022-12-10T05:08:45;29.50;;;17.30;;
24335;SDS011;33098;52.400;16.880;2022-12-10T05:11:13;29.40;;;16.80;;
24335;SDS011;33098;52.400;16.880;2022-12-10T05:13:41;28.30;;;16.90;;
24335;SDS011;33098;52.400;16.880;2022-12-10T05:16:10;28.90;;;17.00;;
24335;SDS011;33098;52.400;16.880;2022-12-10T05:18:38;27.80;;;16.90;;
24335;SDS011;33098;52.400;16.880;2022-12-10T05:21:07;27.00;;;17.00;;
24335;SDS011;33098;52.400;16.880;2022-12-10T05:23:37;30.00;;;17.90;;
24335;SDS011;33098;52.400;16.880;2022-12-10T05:28:38;27.50;;;16.90;;
24335;SDS011;33098;52.400;16.880;2022-12-10T05:31:19;31.00;;;17.80;;
24335;SDS011;33098;52.400;16.880;2022-12-10T05:33:48;29.70;;;16.70;;
24335;SDS011;33098;52.400;16.880;2022-12-10T05:36:17;30.90;;;18.90;;
24335;SDS011;33098;52.400;16.880;2022-12-10T05:38:45;29.70;;;17.90;;
24335;SDS011;33098;52.400;16.880;2022-12-10T05:43:41;29.60;;;18.00;;
24335;SDS011;33098;52.400;16.880;2022-12-10T05:46:11;30.70;;;18.10;;
24335;SDS011;33098;52.400;16.880;2022-12-10T05:48:39;33.20;;;17.60;;
24335;SDS011;33098;52.400;16.880;2022-12-10T05:51:15;32.30;;;18.90;;
24335;SDS011;33098;52.400;16.880;2022-12-10T05:53:44;31.90;;;18.70;;
24335;SDS011;33098;52.400;16.880;2022-12-10T05:56:12;32.10;;;18.20;;
24335;SDS011;33098;52.400;16.880;2022-12-10T05:58:42;30.70;;;18.70;;
24335;SDS011;33098;52.400;16.880;2022-12-10T06:01:10;30.10;;;18.80;;
24335;SDS011;33098;52.400;16.880;2022-12-10T06:03:39;33.60;;;18.60;;
24335;SDS011;33098;52.400;16.880;2022-12-10T06:06:06;33.30;;;19.30;;
24335;SDS011;33098;52.400;16.880;2022-12-10T06:08:33;34.20;;;19.40;;
24335;SDS011;33098;52.400;16.880;2022-12-10T06:11:04;32.30;;;19.30;;
24335;SDS011;33098;52.400;16.880;2022-12-10T06:13:32;34.10;;;18.90;;
24335;SDS011;33098;52.400;16.880;2022-12-10T06:15:59;30.70;;;18.40;;
24335;SDS011;33098;52.400;16.880;2022-12-10T06:18:25;31.50;;;19.50;;
24335;SDS011;33098;52.400;16.880;2022-12-10T06:20:52;32.80;;;19.40;;
24335;SDS011;33098;52.400;16.880;2022-12-10T06:23:18;33.00;;;18.80;;
24335;SDS011;33098;52.400;16.880;2022-12-10T06:25:45;31.20;;;20.10;;
24335;SDS011;33098;52.400;16.880;2022-12-10T06:28:13;32.60;;;18.80;;
24335;SDS011;33098;52.400;16.880;2022-12-10T06:30:39;34.30;;;19.70;;
24335;SDS011;33098;52.400;16.880;2022-12-10T06:33:06;34.00;;;20.20;;
24335;SDS011;33098;52.400;16.880;2022-12-10T06:35:32;29.40;;;18.50;;
24335;SDS011;33098;52.400;16.880;2022-12-10T06:37:59;33.80;;;19.30;;
24335;SDS011;33098;52.400;16.880;2022-12-10T06:40:26;32.50;;;19.90;;
24335;SDS011;33098;52.400;16.880;2022-12-10T06:42:52;35.30;;;20.70;;
24335;SDS011;33098;52.400;16.880;2022-12-10T06:45:19;37.30;;;19.90;;
24335;SDS011;33098;52.400;16.880;2022-12-10T06:47:45;36.10;;;20.50;;
24335;SDS011;33098;52.400;16.880;2022-12-10T06:50:12;34.80;;;20.50;;
24335;SDS011;33098;52.400;16.880;2022-12-10T06:52:39;35.60;;;20.50;;
24335;SDS011;33098;52.400;16.880;2022-12-10T06:55:06;34.80;;;20.70;;
24335;SDS011;33098;52.400;16.880;2022-12-10T06:57:32;35.60;;;20.60;;
24335;SDS011;33098;52.400;16.880;2022-12-10T06:59:59;34.90;;;20.10;;
24335;SDS011;33098;52.400;16.880;2022-12-10T07:02:25;34.50;;;20.50;;
24335;SDS011;33098;52.400;16.880;2022-12-10T07:04:52;34.20;;;20.10;;
24335;SDS011;33098;52.400;16.880;2022-12-10T07:07:22;37.40;;;20.30;;
24335;SDS011;33098;52.400;16.880;2022-12-10T07:09:49;32.90;;;19.30;;
24335;SDS011;33098;52.400;16.880;2022-12-10T07:12:15;31.40;;;19.20;;
24335;SDS011;33098;52.400;16.880;2022-12-10T07:14:41;37.10;;;19.80;;
24335;SDS011;33098;52.400;16.880;2022-12-10T07:17:08;34.60;;;20.30;;
24335;SDS011;33098;52.400;16.880;2022-12-10T07:19:34;34.50;;;20.30;;
24335;SDS011;33098;52.400;16.880;2022-12-10T07:22:01;35.20;;;20.10;;
24335;SDS011;33098;52.400;16.880;2022-12-10T07:24:28;39.20;;;21.90;;
24335;SDS011;33098;52.400;16.880;2022-12-10T07:26:54;41.30;;;22.00;;
24335;SDS011;33098;52.400;16.880;2022-12-10T07:29:21;44.00;;;23.20;;
24335;SDS011;33098;52.400;16.880;2022-12-10T07:31:48;44.00;;;22.80;;
24335;SDS011;33098;52.400;16.880;2022-12-10T07:34:15;44.20;;;24.00;;
24335;SDS011;33098;52.400;16.880;2022-12-10T07:36:43;47.50;;;24.70;;
24335;SDS011;33098;52.400;16.880;2022-12-10T07:39:10;44.10;;;24.20;;
24335;SDS011;33098;52.400;16.880;2022-12-10T07:41:49;52.90;;;25.90;;
24335;SDS011;33098;52.400;16.880;2022-12-10T07:44:19;46.60;;;24.10;;
24335;SDS011;33098;52.400;16.880;2022-12-10T07:46:48;45.70;;;24.70;;
24335;SDS011;33098;52.400;16.880;2022-12-10T07:49:16;46.40;;;24.40;;
24335;SDS011;33098;52.400;16.880;2022-12-10T07:51:46;46.80;;;24.80;;
24335;SDS011;33098;52.400;16.880;2022-12-10T07:54:15;48.70;;;24.80;;
24335;SDS011;33098;52.400;16.880;2022-12-10T07:56:43;50.30;;;26.10;;
24335;SDS011;33098;52.400;16.880;2022-12-10T07:59:09;49.10;;;26.20;;
24335;SDS011;33098;52.400;16.880;2022-12-10T08:01:37;52.10;;;26.10;;
24335;SDS011;33098;52.400;16.880;2022-12-10T08:04:03;49.30;;;25.80;;
24335;SDS011;33098;52.400;16.880;2022-12-10T08:06:30;49.60;;;26.70;;
24335;SDS011;33098;52.400;16.880;2022-12-10T08:08:58;56.70;;;28.10;;
24335;SDS011;33098;52.400;16.880;2022-12-10T08:11:26;55.30;;;28.70;;
24335;SDS011;33098;52.400;16.880;2022-12-10T08:13:53;56.10;;;29.50;;
24335;SDS011;33098;52.400;16.880;2022-12-10T08:16:20;53.10;;;27.00;;
24335;SDS011;33098;52.400;16.880;2022-12-10T08:18:51;61.50;;;28.90;;
24335;SDS011;33098;52.400;16.880;2022-12-10T08:21:20;53.00;;;27.90;;
24335;SDS011;33098;52.400;16.880;2022-12-10T08:23:47;57.70;;;27.20;;
24335;SDS011;33098;52.400;16.880;2022-12-10T08:26:19;54.00;;;27.60;;
24335;SDS011;33098;52.400;16.880;2022-12-10T08:28:47;50.80;;;28.30;;
24335;SDS011;33098;52.400;16.880;2022-12-10T08:31:15;48.70;;;27.50;;
24335;SDS011;33098;52.400;16.880;2022-12-10T08:33:43;53.20;;;28.10;;
24335;SDS011;33098;52.400;16.880;2022-12-10T08:36:11;52.90;;;28.30;;
24335;SDS011;33098;52.400;16.880;2022-12-10T08:38:39;55.50;;;28.30;;
24335;SDS011;33098;52.400;16.880;2022-12-10T08:41:07;47.40;;;26.90;;
24335;SDS011;33098;52.400;16.880;2022-12-10T08:43:36;49.90;;;27.40;;
24335;SDS011;33098;52.400;16.880;2022-12-10T08:46:02;50.90;;;27.60;;
24335;SDS011;33098;52.400;16.880;2022-12-10T08:48:29;56.50;;;29.50;;
24335;SDS011;33098;52.400;16.880;2022-12-10T08:50:57;54.20;;;27.50;;
24335;SDS011;33098;52.400;16.880;2022-12-10T08:53:24;52.30;;;28.40;;
24335;SDS011;33098;52.400;16.880;2022-12-10T08:55:51;49.50;;;27.50;;
24335;SDS011;33098;52.400;16.880;2022-12-10T08:58:19;51.80;;;27.70;;
24335;SDS011;33098;52.400;16.880;2022-12-10T09:00:47;51.00;;;27.30;;
24335;SDS011;33098;52.400;16.880;2022-12-10T09:03:14;69.40;;;37.80;;
24335;SDS011;33098;52.400;16.880;2022-12-10T09:05:42;50.10;;;28.80;;
24335;SDS011;33098;52.400;16.880;2022-12-10T09:08:08;48.90;;;27.10;;
24335;SDS011;33098;52.400;16.880;2022-12-10T09:10:36;50.50;;;26.20;;
24335;SDS011;33098;52.400;16.880;2022-12-10T09:13:04;48.10;;;26.30;;
24335;SDS011;33098;52.400;16.880;2022-12-10T09:15:30;46.70;;;25.30;;
24335;SDS011;33098;52.400;16.880;2022-12-10T09:17:57;44.70;;;25.50;;
24335;SDS011;33098;52.400;16.880;2022-12-10T09:20:24;45.40;;;24.40;;
24335;SDS011;33098;52.400;16.880;2022-12-10T09:22:50;42.30;;;24.10;;
24335;SDS011;33098;52.400;16.880;2022-12-10T09:25:17;45.50;;;24.70;;
24335;SDS011;33098;52.400;16.880;2022-12-10T09:27:47;39.90;;;23.20;;
24335;SDS011;33098;52.400;16.880;2022-12-10T09:30:14;43.80;;;24.00;;
24335;SDS011;33098;52.400;16.880;2022-12-10T09:32:42;42.70;;;23.90;;
24335;SDS011;33098;52.400;16.880;2022-12-10T09:35:08;41.80;;;23.00;;
24335;SDS011;33098;52.400;16.880;2022-12-10T09:37:35;41.20;;;22.20;;
24335;SDS011;33098;52.400;16.880;2022-12-10T09:40:01;40.20;;;22.40;;
24335;SDS011;33098;52.400;16.880;2022-12-10T09:42:34;40.10;;;21.50;;
24335;SDS011;33098;52.400;16.880;2022-12-10T09:45:38;36.40;;;22.30;;
24335;SDS011;33098;52.400;16.880;2022-12-10T09:50:43;35.00;;;20.00;;
24335;SDS011;33098;52.400;16.880;2022-12-10T09:53:15;34.90;;;19.40;;
24335;SDS011;33098;52.400;16.880;2022-12-10T09:55:47;33.90;;;20.10;;
24335;SDS011;33098;52.400;16.880;2022-12-10T09:58:19;34.60;;;19.20;;
24335;SDS011;33098;52.400;16.880;2022-12-10T10:00:50;32.40;;;18.80;;
24335;SDS011;33098;52.400;16.880;2022-12-10T10:03:20;33.60;;;18.70;;
24335;SDS011;33098;52.400;16.880;2022-12-10T10:05:48;32.90;;;18.50;;
24335;SDS011;33098;52.400;16.880;2022-12-10T10:11:32;32.00;;;18.00;;
24335;SDS011;33098;52.400;16.880;2022-12-10T10:14:03;31.40;;;17.80;;
24335;SDS011;33098;52.400;16.880;2022-12-10T10:16:34;30.80;;;18.00;;
24335;SDS011;33098;52.400;16.880;2022-12-10T10:19:06;29.50;;;17.00;;
24335;SDS011;33098;52.400;16.880;2022-12-10T10:21:42;29.10;;;16.30;;
24335;SDS011;33098;52.400;16.880;2022-12-10T10:24:18;29.60;;;16.80;;
24335;SDS011;33098;52.400;16.880;2022-12-10T10:26:47;29.20;;;16.40;;
24335;SDS011;33098;52.400;16.880;2022-12-10T10:29:16;31.70;;;18.00;;
24335;SDS011;33098;52.400;16.880;2022-12-10T10:31:46;29.70;;;17.10;;
24335;SDS011;33098;52.400;16.880;2022-12-10T10:36:52;26.80;;;16.50;;
24335;SDS011;33098;52.400;16.880;2022-12-10T10:39:26;27.50;;;16.70;;
24335;SDS011;33098;52.400;16.880;2022-12-10T10:41:56;26.80;;;16.20;;
24335;SDS011;33098;52.400;16.880;2022-12-10T10:44:28;27.50;;;16.30;;
24335;SDS011;33098;52.400;16.880;2022-12-10T10:47:01;24.20;;;15.20;;
24335;SDS011;33098;52.400;16.880;2022-12-10T10:49:29;25.60;;;15.10;;
24335;SDS011;33098;52.400;16.880;2022-12-10T10:52:12;28.40;;;16.70;;
24335;SDS011;33098;52.400;16.880;2022-12-10T10:54:42;25.70;;;16.00;;
24335;SDS011;33098;52.400;16.880;2022-12-10T10:59:56;26.80;;;16.60;;
24335;SDS011;33098;52.400;16.880;2022-12-10T11:05:08;27.20;;;15.70;;
24335;SDS011;33098;52.400;16.880;2022-12-10T11:07:56;26.50;;;16.30;;
24335;SDS011;33098;52.400;16.880;2022-12-10T11:10:25;28.00;;;16.50;;
24335;SDS011;33098;52.400;16.880;2022-12-10T11:13:00;32.20;;;17.40;;
24335;SDS011;33098;52.400;16.880;2022-12-10T11:15:33;32.70;;;17.80;;
24335;SDS011;33098;52.400;16.880;2022-12-10T11:18:02;28.50;;;16.90;;
24335;SDS011;33098;52.400;16.880;2022-12-10T11:20:58;31.40;;;18.30;;
24335;SDS011;33098;52.400;16.880;2022-12-10T11:23:28;28.10;;;16.00;;
24335;SDS011;33098;52.400;16.880;2022-12-10T11:51:48;29.80;;;17.10;;
24335;SDS011;33098;52.400;16.880;2022-12-10T11:57:06;26.80;;;15.70;;
24335;SDS011;33098;52.400;16.880;2022-12-10T11:59:42;30.80;;;17.30;;
24335;SDS011;33098;52.400;16.880;2022-12-10T12:02:24;26.00;;;16.10;;
24335;SDS011;33098;52.400;16.880;2022-12-10T12:15:58;29.10;;;17.40;;
24335;SDS011;33098;52.400;16.880;2022-12-10T12:21:07;31.00;;;18.10;;
24335;SDS011;33098;52.400;16.880;2022-12-10T12:29:14;29.30;;;16.80;;
24335;SDS011;33098;52.400;16.880;2022-12-10T12:31:49;29.30;;;16.80;;
24335;SDS011;33098;52.400;16.880;2022-12-10T12:37:21;26.90;;;15.90;;
24335;SDS011;33098;52.400;16.880;2022-12-10T12:42:45;26.90;;;16.10;;
24335;SDS011;33098;52.400;16.880;2022-12-10T12:45:25;29.10;;;16.30;;
24335;SDS011;33098;52.400;16.880;2022-12-10T12:54:01;28.80;;;16.80;;
24335;SDS011;33098;52.400;16.880;2022-12-10T13:04:50;26.50;;;16.20;;
24335;SDS011;33098;52.400;16.880;2022-12-10T13:17:28;26.00;;;16.40;;
24335;SDS011;33098;52.400;16.880;2022-12-10T13:22:59;27.80;;;16.50;;
24335;SDS011;33098;52.400;16.880;2022-12-10T13:25:56;29.40;;;17.70;;
24335;SDS011;33098;52.400;16.880;2022-12-10T13:28:27;34.60;;;17.10;;
24335;SDS011;33098;52.400;16.880;2022-12-10T13:33:49;31.00;;;18.00;;
24335;SDS011;33098;52.400;16.880;2022-12-10T13:41:31;26.20;;;15.50;;
24335;SDS011;33098;52.400;16.880;2022-12-10T13:44:37;28.20;;;17.10;;
24335;SDS011;33098;52.400;16.880;2022-12-10T13:49:48;25.90;;;15.00;;
24335;SDS011;33098;52.400;16.880;2022-12-10T13:52:19;23.20;;;14.60;;
24335;SDS011;33098;52.400;16.880;2022-12-10T13:55:02;26.10;;;15.50;;
24335;SDS011;33098;52.400;16.880;2022-12-10T13:57:58;25.10;;;15.30;;
24335;SDS011;33098;52.400;16.880;2022-12-10T14:00:49;35.90;;;23.90;;
24335;SDS011;33098;52.400;16.880;2022-12-10T14:03:23;27.30;;;15.00;;
24335;SDS011;33098;52.400;16.880;2022-12-10T14:08:42;23.10;;;14.50;;
24335;SDS011;33098;52.400;16.880;2022-12-10T14:11:21;25.70;;;15.30;;
24335;SDS011;33098;52.400;16.880;2022-12-10T14:13:52;24.40;;;15.10;;
24335;SDS011;33098;52.400;16.880;2022-12-10T14:16:24;27.20;;;15.90;;
24335;SDS011;33098;52.400;16.880;2022-12-10T14:19:01;28.10;;;16.10;;
24335;SDS011;33098;52.400;16.880;2022-12-10T14:21:39;29.80;;;16.10;;
24335;SDS011;33098;52.400;16.880;2022-12-10T14:27:11;23.40;;;15.20;;
24335;SDS011;33098;52.400;16.880;2022-12-10T14:29:44;23.00;;;14.70;;
24335;SDS011;33098;52.400;16.880;2022-12-10T14:32:19;25.60;;;14.90;;
24335;SDS011;33098;52.400;16.880;2022-12-10T14:34:53;26.10;;;15.70;;
24335;SDS011;33098;52.400;16.880;2022-12-10T14:37:33;33.40;;;18.90;;
24335;SDS011;33098;52.400;16.880;2022-12-10T14:40:05;29.50;;;16.60;;
24335;SDS011;33098;52.400;16.880;2022-12-10T14:42:33;24.10;;;14.90;;
24335;SDS011;33098;52.400;16.880;2022-12-10T14:45:03;24.70;;;15.70;;
24335;SDS011;33098;52.400;16.880;2022-12-10T14:47:32;26.10;;;16.30;;
24335;SDS011;33098;52.400;16.880;2022-12-10T14:50:04;26.40;;;16.70;;
24335;SDS011;33098;52.400;16.880;2022-12-10T14:52:41;28.90;;;17.00;;
24335;SDS011;33098;52.400;16.880;2022-12-10T14:55:13;23.70;;;15.20;;
24335;SDS011;33098;52.400;16.880;2022-12-10T15:00:48;23.70;;;15.30;;
24335;SDS011;33098;52.400;16.880;2022-12-10T15:03:20;23.60;;;14.70;;
24335;SDS011;33098;52.400;16.880;2022-12-10T15:05:54;33.50;;;18.40;;
24335;SDS011;33098;52.400;16.880;2022-12-10T15:08:23;27.90;;;16.30;;
24335;SDS011;33098;52.400;16.880;2022-12-10T15:10:52;26.30;;;14.90;;
24335;SDS011;33098;52.400;16.880;2022-12-10T15:16:01;30.10;;;16.40;;
24335;SDS011;33098;52.400;16.880;2022-12-10T15:18:31;26.00;;;15.50;;
24335;SDS011;33098;52.400;16.880;2022-12-10T15:21:13;24.90;;;14.10;;
24335;SDS011;33098;52.400;16.880;2022-12-10T15:23:44;34.10;;;18.10;;
24335;SDS011;33098;52.400;16.880;2022-12-10T15:26:19;24.20;;;14.60;;
24335;SDS011;33098;52.400;16.880;2022-12-10T15:28:48;21.80;;;13.70;;
24335;SDS011;33098;52.400;16.880;2022-12-10T15:33:57;20.00;;;11.60;;
24335;SDS011;33098;52.400;16.880;2022-12-10T15:36:36;17.40;;;10.70;;
24335;SDS011;33098;52.400;16.880;2022-12-10T15:42:06;21.90;;;11.80;;
24335;SDS011;33098;52.400;16.880;2022-12-10T15:44:37;17.10;;;11.70;;
24335;SDS011;33098;52.400;16.880;2022-12-10T15:47:14;19.70;;;11.40;;
24335;SDS011;33098;52.400;16.880;2022-12-10T15:49:44;16.90;;;10.40;;
24335;SDS011;33098;52.400;16.880;2022-12-10T15:52:14;16.70;;;10.20;;
24335;SDS011;33098;52.400;16.880;2022-12-10T15:54:44;14.60;;;9.80;;
24335;SDS011;33098;52.400;16.880;2022-12-10T15:59:47;15.80;;;10.00;;
24335;SDS011;33098;52.400;16.880;2022-12-10T16:04:58;18.80;;;11.50;;
24335;SDS011;33098;52.400;16.880;2022-12-10T16:07:25;20.50;;;12.20;;
24335;SDS011;33098;52.400;16.880;2022-12-10T16:09:52;19.40;;;11.50;;
24335;SDS011;33098;52.400;16.880;2022-12-10T16:12:18;19.60;;;10.80;;
24335;SDS011;33098;52.400;16.880;2022-12-10T16:14:49;17.40;;;10.10;;
24335;SDS011;33098;52.400;16.880;2022-12-10T16:17:21;17.80;;;10.50;;
24335;SDS011;33098;52.400;16.880;2022-12-10T16:19:48;19.50;;;11.10;;
24335;SDS011;33098;52.400;16.880;2022-12-10T16:22:14;14.50;;;9.50;;
24335;SDS011;33098;52.400;16.880;2022-12-10T16:24:41;16.70;;;9.00;;
24335;SDS011;33098;52.400;16.880;2022-12-10T16:27:11;18.90;;;10.30;;
24335;SDS011;33098;52.400;16.880;2022-12-10T16:29:40;17.60;;;10.40;;
24335;SDS011;33098;52.400;16.880;2022-12-10T16:32:09;16.40;;;10.40;;
24335;SDS011;33098;52.400;16.880;2022-12-10T16:34:37;15.40;;;9.70;;
24335;SDS011;33098;52.400;16.880;2022-12-10T16:37:05;26.90;;;14.40;;
24335;SDS011;33098;52.400;16.880;2022-12-10T16:39:32;27.10;;;14.70;;
24335;SDS011;33098;52.400;16.880;2022-12-10T16:41:58;22.80;;;12.90;;
24335;SDS011;33098;52.400;16.880;2022-12-10T16:44:25;19.40;;;11.30;;
24335;SDS011;33098;52.400;16.880;2022-12-10T16:46:51;15.70;;;10.20;;
24335;SDS011;33098;52.400;16.880;2022-12-10T16:49:18;20.30;;;11.20;;
24335;SDS011;33098;52.400;16.880;2022-12-10T16:51:44;21.70;;;11.90;;
24335;SDS011;33098;52.400;16.880;2022-12-10T16:54:11;18.90;;;11.40;;
24335;SDS011;33098;52.400;16.880;2022-12-10T16:56:39;21.10;;;12.80;;
24335;SDS011;33098;52.400;16.880;2022-12-10T16:59:08;23.00;;;12.80;;
24335;SDS011;33098;52.400;16.880;2022-12-10T17:01:36;20.20;;;12.30;;
24335;SDS011;33098;52.400;16.880;2022-12-10T17:04:03;22.30;;;12.40;;